This is the latest recevied weather packets stored in our database for station/object LRSV. If no packets are shown the sender has not sent any weather packets the latest 10 day(s).
| Time | Temp. | Humidity | Pressure | Rain* | Wind** | Luminosity | Snow |
|---|---|---|---|---|---|---|---|
| 1778203101 | 13.89° C | 77% | 1013 hPa | - | - | - | - |
| 1778202200 | 13.89° C | 77% | 1013 hPa | - | - | - | - |
| 1778201301 | 12.78° C | 82% | 1013 hPa | - | - | - | - |
| 1778200400 | 12.78° C | 82% | 1013 hPa | - | - | - | - |
| 1778199500 | 13.89° C | 77% | 1013 hPa | - | - | - | - |
| 1778198600 | 13.89° C | 77% | 1013 hPa | - | - | - | - |
| 1778197701 | 15° C | 72% | 1013 hPa | - | - | - | - |
| 1778196800 | 15° C | 72% | 1013 hPa | - | - | - | - |
| 1778195901 | 15° C | 72% | 1013 hPa | - | - | - | - |
| 1778195000 | 15° C | 72% | 1013 hPa | - | - | - | - |
| 1778194101 | 15° C | 68% | 1013 hPa | - | - | - | - |
| 1778193277 | 15° C | 68% | 1013 hPa | - | - | - | - |
| 1778192300 | 15° C | 68% | 1013 hPa | - | - | - | - |
| 1778191400 | 15° C | 68% | 1013 hPa | - | - | - | - |
| 1778190501 | 13.89° C | 72% | 1013 hPa | - | - | - | - |
| 1778189602 | 13.89° C | 72% | 1013 hPa | - | - | - | - |
| 1778188700 | 13.89° C | 72% | 1013 hPa | - | - | - | - |
| 1778187801 | 13.89° C | 72% | 1013 hPa | - | - | - | - |
| 1778186900 | 15° C | 68% | 1013 hPa | - | - | - | - |
| 1778186000 | 15° C | 68% | 1013 hPa | - | - | - | - |
| 1778185100 | 15° C | 68% | 1013 hPa | - | - | - | - |
| 1778184201 | 15° C | 68% | 1013 hPa | - | - | - | - |
| 1778183306 | 15° C | 68% | 1013 hPa | - | - | - | - |
| 1778182400 | 15° C | 68% | 1013 hPa | - | - | - | - |
| 1778181500 | 17.22° C | 59% | 1013 hPa | - | - | - | - |
* Rain since midnight (hover to see other rain measurements)
** Current wind speed in m/s (hover to see current wind gust speed)